WARRWAOO

Guest
Details From WARR - Surabaya Juanda
To WAOO - Banjarmasin Syamsudin Noor
Flight Number -
Tags generated
Created
Modified
Stats Distance 264 nm / 490 km
Max Altitude 25,900 ft / 7,894 m
Waypoints 4
Social Downloads 0
Likes 0
Share VATSIM

Download

Looking for another format? Having issues loading an existing format? Contact us
Advertisement - Login to hide

Notes

Basic altitude profile: - Ascent Rate: 2500ft/min - Ascent Speed: 250kts - Cruise Altitude: 35000ft - Cruise Speed: 420kts - Descent Rate: 1500ft/min - Descent Speed: 250kts

Route

WARR RAMPY W31 IKAPI WAOO

ID Type Via Altitude Latitude Longitude Leg Dist Tot Dist Heading (true) Name
O WARR APT - 0 ft / 0 m -7.37983˚ 112.78686˚ - 0 nm - Surabaya Juanda
RAMPY FIX - 25,900 ft / 7,894 m -6.25016˚ 113.34601˚ 75 nm 75 nm 26° / 26° -
IKAPI FIX W31 (AWY-HI) 21,900 ft / 6,675 m -4.95603˚ 113.97689˚ 86 nm 161 nm 26° / 26° -
O WAOO APT - 0 ft / 0 m -3.44235˚ 114.76255˚ 102 nm 264 nm 27° / 27° Banjarmasin Syamsudin Noor

Altitude Profile

Advertisement - Login to hide

Weather


0- 5 10 15 20 25 30 35+ Temperature / ° C

Clouds and Precipitation
Forecast for 2017-12-15 12:00 UTC. Updated an hour ago

Ground ~20,000 ft ~40,000 ft Winds

WARR

Details ICAO WARR (SUB)
Name Surabaya Juanda
Region Indonesia
Timezone Asia/Jakarta (UTC+7.0)
Stats Elevation 9 ft / 3 m (AMSL)
Location -7.379832° 112.786858°
Runways 1
Magnetic Variation 0.952° E

METAR

WARR 150800Z 34011KT 9999 FEW018CB SCT020 31/25 Q1006 NOSIG

Decode

TAF

TAF WARR 150500Z 1506/1606 06010KT 9999 SCT020 TEMPO 1508/1512 30010KT 4000 TSRA SCT018CB BECMG 1512/1514 26005KT 7000 FEW020 TEMPO 1520/1600 4000 BR BECMG 1601/1603 08010KT 9999 SCT020

Decode

Departure Runways

ID Width Length Bearing (true) Bearing (mag) Surface Threshold Offset Overrun Length
10 148 ft / 45 m 9,836 ft / 2,998 m 99.32° 98.37° Asphalt 0 ft / 0 m 328 ft / 100 m
28 148 ft / 45 m 9,836 ft / 2,998 m 279.32° 278.37° Asphalt 0 ft / 0 m 328 ft / 100 m

WAOO

Details ICAO WAOO (BDJ)
Name Banjarmasin Syamsudin Noor
Region Indonesia
Timezone Asia/Makassar (UTC+8.0)
Stats Elevation 66 ft / 20 m (AMSL)
Location -3.442354° 114.762552°
Runways 1
Magnetic Variation 0.719° E

METAR

WAOO 150800Z 26007KT 9999 FEW017 30/24 Q1007

Decode

TAF

TAF WAOO 142300Z 1500/1524 06004KT 9000 SCT016 BECMG 1504/1505 25007KT TEMPO 1506/1510 6000 TSRA FEW015CB PROB40 TEMPO 1519/1921 7000 RA

Decode

Destination Runways

ID Width Length Bearing (true) Bearing (mag) Surface Threshold Offset Overrun Length
10 148 ft / 45 m 8,208 ft / 2,502 m 100.45° 99.73° Asphalt 0 ft / 0 m 200 ft / 61 m
28 148 ft / 45 m 8,208 ft / 2,502 m 280.45° 279.73° Asphalt 0 ft / 0 m 200 ft / 61 m

Approach Navaids

Runway Type Ident Frequency Range Bearing (true) Bearing (mag) Slope Elevation
10 Localiser IBDM 110.70 MHz 18 nm / 33 km 100.49° 99.77° - 66 ft / 20 m (AMSL)
10 Glidescope IBDM 110.70 MHz 10 nm / 19 km 100.45° 99.73° 3.00° 54 ft / 16 m (AMSL)

Popular Alternatives